Time;durP1;ratioP1;P1;durP2;ratioP2;P2;SDS_P1;SDS_P2;PMS_P1;PMS_P2;Temp;Humidity;BMP_temperature;BMP_pressure;BME280_temperature;BME280_humidity;BME280_pressure;Samples;Min_cycle;Max_cycle;Signal;HPM_P1;HPM_P2
2022/12/31 00:00:38;;;;;;;3.90;3.80;;;14.60;99.90;;;;;;5011103;28;20268;-64
2022/12/31 00:03:05;;;;;;;3.57;3.47;;;14.60;99.90;;;;;;5012528;28;20176;-64
2022/12/31 00:05:31;;;;;;;4.00;3.80;;;14.60;99.90;;;;;;5012574;28;20169;-64
2022/12/31 00:07:58;;;;;;;4.00;3.90;;;14.70;99.90;;;;;;5012162;28;20188;-64
2022/12/31 00:10:23;;;;;;;3.57;3.47;;;14.70;99.90;;;;;;5012030;28;20171;-64
2022/12/31 00:12:49;;;;;;;5.37;5.17;;;14.70;99.90;;;;;;5012391;28;20751;-64
2022/12/31 00:15:15;;;;;;;3.60;3.50;;;14.70;99.90;;;;;;5012346;28;20206;-64
2022/12/31 00:17:41;;;;;;;5.30;4.90;;;14.80;99.90;;;;;;5012240;28;20234;-64
2022/12/31 00:20:07;;;;;;;4.33;4.13;;;14.80;99.90;;;;;;5011954;28;20184;-64
2022/12/31 00:22:33;;;;;;;4.57;4.37;;;14.80;99.90;;;;;;5012561;28;20241;-64
2022/12/31 00:24:59;;;;;;;4.00;3.80;;;14.80;99.90;;;;;;5012057;28;20591;-64
2022/12/31 00:27:24;;;;;;;3.90;3.60;;;14.80;99.90;;;;;;5012646;28;20255;-64
2022/12/31 00:29:50;;;;;;;3.60;3.50;;;14.70;99.90;;;;;;5011756;28;20670;-64
2022/12/31 00:32:16;;;;;;;3.60;3.50;;;14.70;99.90;;;;;;5012253;28;20252;-64
2022/12/31 00:34:41;;;;;;;3.43;3.33;;;14.60;99.90;;;;;;5011954;28;20196;-64
2022/12/31 00:37:07;;;;;;;5.93;3.50;;;14.60;99.90;;;;;;5012268;28;20172;-65
2022/12/31 00:39:32;;;;;;;3.60;3.50;;;14.60;99.90;;;;;;5011141;28;20187;-64
2022/12/31 00:41:58;;;;;;;3.77;3.67;;;14.70;99.90;;;;;;5012141;28;20191;-64
2022/12/31 00:44:23;;;;;;;3.70;3.60;;;14.70;99.90;;;;;;5011582;28;20624;-64
2022/12/31 00:46:49;;;;;;;4.67;4.47;;;14.70;99.90;;;;;;5010714;28;20180;-65
2022/12/31 00:49:15;;;;;;;4.47;4.27;;;14.60;99.90;;;;;;5011405;28;20176;-65
2022/12/31 00:51:40;;;;;;;4.17;3.97;;;14.40;99.90;;;;;;5010757;28;20180;-64
2022/12/31 00:54:07;;;;;;;7.97;7.20;;;14.30;99.90;;;;;;5011673;28;20240;-64
2022/12/31 00:56:32;;;;;;;8.07;7.37;;;14.20;99.90;;;;;;5012287;28;20746;-65
2022/12/31 00:58:59;;;;;;;11.13;9.40;;;14.10;99.90;;;;;;5011829;28;20172;-65
2022/12/31 01:01:30;;;;;;;8.83;7.97;;;13.90;99.90;;;;;;5011556;28;20164;-65
2022/12/31 01:04:07;;;;;;;9.17;7.67;;;13.80;99.90;;;;;;5011602;28;20544;-65
2022/12/31 01:06:33;;;;;;;9.60;6.90;;;13.70;99.90;;;;;;5010562;28;20175;-65
2022/12/31 01:08:59;;;;;;;6.13;5.53;;;13.70;99.90;;;;;;5011556;28;20184;-64
2022/12/31 01:11:28;;;;;;;4.63;4.43;;;13.70;99.90;;;;;;5011320;28;20184;-65
2022/12/31 01:13:59;;;;;;;4.07;3.80;;;13.70;99.90;;;;;;5011538;28;20199;-64
2022/12/31 01:16:27;;;;;;;4.10;3.90;;;13.70;99.90;;;;;;5011525;28;20177;-64
2022/12/31 01:18:53;;;;;;;4.23;4.03;;;13.70;99.90;;;;;;5012053;28;20555;-64
2022/12/31 01:21:20;;;;;;;3.73;3.63;;;13.70;99.90;;;;;;5011030;28;20655;-64
2022/12/31 01:23:47;;;;;;;3.77;3.67;;;13.80;99.90;;;;;;5040321;23;20259;-66
2022/12/31 01:26:14;;;;;;;3.50;3.40;;;13.80;99.90;;;;;;5031163;28;20668;-66
2022/12/31 01:28:39;;;;;;;3.80;3.70;;;13.90;99.90;;;;;;5031498;28;20175;-67
2022/12/31 01:31:08;;;;;;;4.70;4.50;;;14.00;99.90;;;;;;5030825;28;20179;-66
2022/12/31 01:33:34;;;;;;;3.60;3.50;;;14.00;99.90;;;;;;5031254;28;20698;-66
2022/12/31 01:36:06;;;;;;;4.40;4.10;;;14.10;99.90;;;;;;5029702;28;20322;-66
2022/12/31 01:38:33;;;;;;;3.73;3.63;;;14.20;99.90;;;;;;5029127;28;20171;-66
2022/12/31 01:40:59;;;;;;;4.63;4.43;;;14.30;99.90;;;;;;5031029;28;20167;-65
2022/12/31 01:43:42;;;;;;;4.27;4.07;;;14.40;99.90;;;;;;5030833;28;20699;-66
2022/12/31 01:46:11;;;;;;;3.80;3.70;;;14.60;99.90;;;;;;5031187;28;20183;-65
2022/12/31 01:48:36;;;;;;;3.70;3.60;;;14.70;99.90;;;;;;5031026;28;20262;-66
2022/12/31 01:51:04;;;;;;;3.30;3.20;;;14.80;99.90;;;;;;5031464;28;20246;-66
2022/12/31 01:53:30;;;;;;;3.27;3.17;;;15.00;99.90;;;;;;5034571;28;20203;-66
2022/12/31 01:55:58;;;;;;;3.30;3.20;;;15.10;99.90;;;;;;5034768;28;20175;-66
2022/12/31 01:58:30;;;;;;;3.50;3.30;;;15.20;99.90;;;;;;5034634;28;20507;-66
2022/12/31 02:00:57;;;;;;;3.27;3.17;;;15.30;99.90;;;;;;5034692;28;20170;-66
2022/12/31 02:03:25;;;;;;;3.73;3.63;;;15.40;99.90;;;;;;5034317;28;20183;-66
2022/12/31 02:05:55;;;;;;;3.40;3.30;;;15.40;99.90;;;;;;5034674;28;20541;-66
2022/12/31 02:08:21;;;;;;;4.20;4.03;;;15.50;99.90;;;;;;5032991;28;20215;-66
2022/12/31 02:10:47;;;;;;;3.40;3.30;;;15.50;99.90;;;;;;5034411;28;20814;-66
2022/12/31 02:13:13;;;;;;;3.20;3.10;;;15.50;99.90;;;;;;5034085;28;20238;-66
2022/12/31 02:15:50;;;;;;;3.70;3.60;;;15.60;99.90;;;;;;5030179;28;20210;-65
2022/12/31 02:18:55;;;;;;;4.83;4.63;;;15.50;99.90;;;;;;5014591;28;20176;-66
2022/12/31 02:21:26;;;;;;;4.70;4.50;;;15.60;99.90;;;;;;5014401;28;20514;-66
2022/12/31 02:24:11;;;;;;;3.70;3.60;;;15.60;99.90;;;;;;5018480;28;20215;-65
2022/12/31 02:26:57;;;;;;;3.80;3.60;;;15.70;99.90;;;;;;5034566;28;20168;-65
2022/12/31 02:29:59;;;;;;;3.90;3.80;;;15.80;99.90;;;;;;5033714;28;20183;-66
2022/12/31 02:32:34;;;;;;;4.83;4.63;;;15.90;99.90;;;;;;5034213;28;20213;-66
2022/12/31 02:35:09;;;;;;;4.10;3.97;;;16.00;99.90;;;;;;5032558;28;20198;-66
2022/12/31 02:37:38;;;;;;;4.80;4.60;;;16.10;99.90;;;;;;5034175;28;20174;-65
2022/12/31 02:40:08;;;;;;;4.10;4.00;;;16.20;99.90;;;;;;5033571;28;20175;-66
2022/12/31 02:42:34;;;;;;;3.63;3.53;;;16.20;99.90;;;;;;5034005;28;20168;-66
2022/12/31 02:45:00;;;;;;;3.90;3.80;;;16.30;99.90;;;;;;5033675;28;20265;-66
2022/12/31 02:47:37;;;;;;;3.63;3.53;;;16.40;99.90;;;;;;5033720;28;20183;-66
2022/12/31 02:50:28;;;;;;;4.03;3.70;;;16.40;99.90;;;;;;5032187;28;20641;-66
2022/12/31 02:53:32;;;;;;;3.07;2.90;;;16.50;99.90;;;;;;5032239;28;20675;-66
2022/12/31 02:56:14;;;;;;;5.80;5.60;;;16.60;99.90;;;;;;5033733;28;20179;-65
2022/12/31 03:04:33;;;;;;;3.23;3.03;;;16.60;99.90;;;;;;5013734;28;20239;-66
2022/12/31 03:07:03;;;;;;;3.57;3.47;;;16.60;99.90;;;;;;5022349;28;20175;-66
2022/12/31 03:09:28;;;;;;;3.20;3.00;;;16.60;99.90;;;;;;5033216;28;20554;-66
2022/12/31 03:14:38;;;;;;;3.30;3.20;;;16.60;99.90;;;;;;5033054;28;20198;-66
2022/12/31 03:17:04;;;;;;;3.00;2.90;;;16.70;99.90;;;;;;5033282;28;20172;-65
2022/12/31 03:22:28;;;;;;;3.10;2.80;;;16.60;99.90;;;;;;5013463;28;20325;-66
2022/12/31 03:27:43;;;;;;;3.67;3.47;;;16.60;99.90;;;;;;5035043;28;20614;-66
2022/12/31 03:30:09;;;;;;;3.10;2.90;;;16.60;99.90;;;;;;5035444;28;20168;-66
2022/12/31 03:32:35;;;;;;;3.00;2.90;;;16.60;99.90;;;;;;5033517;28;20457;-66
2022/12/31 03:35:00;;;;;;;3.47;3.37;;;16.60;99.90;;;;;;5032921;28;20195;-66
2022/12/31 03:37:26;;;;;;;3.50;3.20;;;16.60;99.90;;;;;;5032954;28;20178;-66
2022/12/31 03:39:52;;;;;;;3.10;3.00;;;16.60;99.90;;;;;;5032227;28;20180;-65
2022/12/31 03:42:17;;;;;;;4.77;4.57;;;16.60;99.90;;;;;;5032973;28;20183;-66
2022/12/31 03:44:43;;;;;;;4.10;3.80;;;16.50;99.90;;;;;;5032547;28;20226;-66
2022/12/31 03:47:08;;;;;;;4.50;4.30;;;16.50;99.90;;;;;;5032692;28;20207;-66
2022/12/31 03:49:34;;;;;;;3.57;3.47;;;16.50;99.90;;;;;;5032222;28;20621;-65
2022/12/31 03:52:01;;;;;;;3.50;3.30;;;16.40;99.90;;;;;;5032557;28;20176;-66
2022/12/31 03:54:27;;;;;;;6.00;5.60;;;16.30;99.90;;;;;;5032435;28;20199;-66
2022/12/31 03:56:53;;;;;;;3.20;3.10;;;16.30;99.90;;;;;;5032662;28;20237;-66
2022/12/31 03:59:18;;;;;;;3.50;3.40;;;16.40;99.90;;;;;;5032110;28;20548;-65
2022/12/31 04:01:44;;;;;;;3.20;3.10;;;16.30;99.90;;;;;;5032465;28;20592;-66
2022/12/31 04:04:10;;;;;;;4.20;4.00;;;16.40;99.90;;;;;;5031955;28;20211;-67
2022/12/31 04:06:35;;;;;;;3.20;3.00;;;16.40;99.90;;;;;;5031154;28;20242;-66
2022/12/31 04:09:01;;;;;;;4.73;4.53;;;16.50;99.90;;;;;;5032182;28;20175;-66
2022/12/31 04:11:26;;;;;;;3.53;3.43;;;16.50;99.90;;;;;;5032037;28;20195;-66
2022/12/31 04:13:52;;;;;;;4.30;4.10;;;16.50;99.90;;;;;;5031075;28;20294;-66
2022/12/31 04:16:17;;;;;;;4.53;4.33;;;16.50;99.90;;;;;;5030882;28;20179;-66
2022/12/31 04:18:43;;;;;;;15.13;14.47;;;16.50;99.90;;;;;;5032071;28;20696;-66
2022/12/31 04:21:08;;;;;;;6.57;6.30;;;16.50;99.90;;;;;;5031871;28;20176;-66
2022/12/31 04:23:34;;;;;;;3.27;3.17;;;16.60;99.90;;;;;;5031816;28;20203;-66
2022/12/31 04:26:00;;;;;;;3.20;3.10;;;16.60;99.90;;;;;;5032049;28;20549;-66
2022/12/31 04:28:25;;;;;;;4.40;4.13;;;16.60;99.90;;;;;;5030524;28;20183;-66
2022/12/31 04:30:51;;;;;;;4.17;4.00;;;16.60;99.90;;;;;;5031724;28;20206;-66
2022/12/31 04:33:16;;;;;;;4.83;4.63;;;16.60;99.90;;;;;;5031777;28;20210;-66
2022/12/31 04:35:42;;;;;;;5.03;4.83;;;16.60;99.90;;;;;;5031730;28;20270;-66
2022/12/31 04:38:08;;;;;;;4.30;4.10;;;16.60;99.90;;;;;;5031485;28;20182;-66
2022/12/31 04:40:33;;;;;;;4.03;3.83;;;16.60;99.90;;;;;;5031565;28;20195;-65
2022/12/31 04:42:59;;;;;;;3.40;3.20;;;16.60;99.90;;;;;;5031985;28;20202;-65
2022/12/31 04:45:25;;;;;;;3.40;3.30;;;16.60;99.90;;;;;;5031524;28;20199;-66
2022/12/31 04:47:50;;;;;;;5.80;5.60;;;16.70;99.90;;;;;;5031636;28;20175;-66
2022/12/31 04:50:16;;;;;;;5.30;5.10;;;16.70;99.90;;;;;;5031349;28;20186;-66
2022/12/31 04:52:41;;;;;;;3.27;3.17;;;16.70;99.90;;;;;;5031377;28;20609;-65
2022/12/31 04:55:07;;;;;;;10.87;10.43;;;16.80;99.90;;;;;;5031555;28;20222;-66
2022/12/31 04:57:33;;;;;;;6.00;5.60;;;16.80;99.90;;;;;;5031528;28;20633;-66
2022/12/31 04:59:58;;;;;;;4.07;3.93;;;16.80;99.90;;;;;;5031176;28;20696;-66
2022/12/31 05:02:24;;;;;;;6.03;5.77;;;16.80;99.90;;;;;;5031367;28;20237;-66
2022/12/31 05:04:49;;;;;;;5.57;5.17;;;16.80;99.90;;;;;;5031297;28;20224;-66
2022/12/31 05:07:15;;;;;;;12.10;11.60;;;16.80;99.90;;;;;;5031075;28;20259;-66
2022/12/31 05:09:41;;;;;;;4.30;4.10;;;16.80;99.90;;;;;;5031122;28;20168;-66
2022/12/31 05:12:06;;;;;;;4.50;4.30;;;16.80;99.90;;;;;;5031378;28;20221;-65
2022/12/31 05:14:32;;;;;;;4.37;4.17;;;16.80;99.90;;;;;;5031099;28;20227;-65
2022/12/31 05:16:58;;;;;;;5.50;5.30;;;16.80;99.90;;;;;;5031500;28;20250;-66
2022/12/31 05:19:23;;;;;;;18.47;17.60;;;16.80;99.90;;;;;;5030903;28;20237;-65
2022/12/31 05:22:27;;;;;;;55.33;52.13;;;16.80;99.90;;;;;;5031370;28;20168;-66
2022/12/31 05:24:34;;;;;;;3.77;3.57;;;16.80;99.90;;;;;;5030860;28;20688;-65
2022/12/31 05:27:00;;;;;;;10.00;9.53;;;16.90;99.90;;;;;;5035426;28;20216;-66
2022/12/31 05:29:26;;;;;;;4.73;4.43;;;16.90;99.90;;;;;;5034822;28;20194;-67
2022/12/31 05:31:51;;;;;;;24.40;23.17;;;16.80;99.90;;;;;;5035282;28;20206;-66
2022/12/31 05:34:17;;;;;;;67.37;63.90;;;16.80;99.90;;;;;;5034659;28;20233;-66
2022/12/31 05:36:43;;;;;;;4.03;3.83;;;16.80;99.90;;;;;;5035189;28;20167;-66
2022/12/31 05:39:08;;;;;;;3.50;3.20;;;16.90;99.90;;;;;;5034619;28;20201;-65
2022/12/31 05:41:34;;;;;;;17.43;16.73;;;16.80;99.90;;;;;;5035284;28;20621;-65
2022/12/31 05:43:59;;;;;;;8.37;5.67;;;16.80;99.90;;;;;;5034885;28;20191;-66
2022/12/31 05:46:25;;;;;;;5.00;4.80;;;16.90;99.90;;;;;;5035000;28;20254;-66
2022/12/31 05:48:50;;;;;;;5.63;5.23;;;16.80;99.90;;;;;;5034884;28;20180;-65
2022/12/31 05:51:16;;;;;;;3.53;3.37;;;16.80;99.90;;;;;;5034563;28;20211;-66
2022/12/31 05:53:41;;;;;;;6.03;5.70;;;16.70;99.90;;;;;;5034603;28;20218;-66
2022/12/31 05:56:07;;;;;;;4.17;3.97;;;16.80;99.90;;;;;;5034613;28;20549;-65
2022/12/31 05:58:33;;;;;;;11.47;10.87;;;16.80;99.90;;;;;;5034485;28;20262;-65
2022/12/31 06:00:58;;;;;;;3.57;3.23;;;16.80;99.90;;;;;;5034173;28;20207;-66
2022/12/31 06:03:24;;;;;;;3.50;3.30;;;16.80;99.90;;;;;;5034341;28;20230;-66
2022/12/31 06:05:49;;;;;;;2.97;2.80;;;16.70;99.90;;;;;;5034793;28;20517;-66
2022/12/31 06:08:15;;;;;;;4.53;4.33;;;16.70;99.90;;;;;;5034396;28;20229;-66
2022/12/31 06:10:41;;;;;;;3.23;3.10;;;16.80;99.90;;;;;;5034312;28;20178;-66
2022/12/31 06:13:07;;;;;;;3.60;3.30;;;16.80;99.90;;;;;;5034061;28;20238;-66
2022/12/31 06:15:37;;;;;;;4.40;3.13;;;16.80;99.90;;;;;;5034666;28;20247;-66
2022/12/31 06:18:02;;;;;;;3.20;3.10;;;16.90;99.90;;;;;;5034169;28;20171;-66
2022/12/31 06:20:28;;;;;;;3.20;3.10;;;16.80;99.90;;;;;;5029115;28;20173;-65
2022/12/31 06:22:54;;;;;;;3.83;3.63;;;16.80;99.90;;;;;;5014744;28;20172;-66
2022/12/31 06:25:19;;;;;;;3.13;3.03;;;16.90;99.90;;;;;;5014442;28;20216;-66
2022/12/31 06:27:45;;;;;;;4.00;3.87;;;16.90;99.90;;;;;;5014745;28;20175;-66
2022/12/31 06:30:11;;;;;;;3.40;3.30;;;17.00;99.90;;;;;;5030915;28;20176;-66
2022/12/31 06:32:38;;;;;;;3.33;3.07;;;17.10;99.90;;;;;;5033881;28;20171;-66
2022/12/31 06:35:04;;;;;;;3.80;3.50;;;17.10;99.90;;;;;;5034100;28;20197;-66
2022/12/31 06:37:29;;;;;;;3.70;3.40;;;17.10;99.90;;;;;;5032892;28;20182;-65
2022/12/31 06:39:55;;;;;;;3.40;3.20;;;17.10;99.90;;;;;;5033719;28;20172;-66
2022/12/31 06:42:21;;;;;;;3.67;3.30;;;17.20;98.50;;;;;;5033759;28;20183;-66
2022/12/31 06:44:46;;;;;;;4.53;4.30;;;17.20;96.90;;;;;;5033942;28;20206;-65
2022/12/31 06:47:12;;;;;;;4.40;4.20;;;17.20;99.90;;;;;;5033592;28;20186;-65
2022/12/31 06:49:39;;;;;;;3.30;3.20;;;17.20;98.20;;;;;;5034718;28;20174;-66
2022/12/31 06:52:05;;;;;;;3.20;3.10;;;17.10;99.90;;;;;;5040252;28;20176;-65
2022/12/31 06:54:30;;;;;;;3.30;3.13;;;17.00;99.90;;;;;;5038356;28;20265;-65
2022/12/31 06:56:56;;;;;;;3.60;3.40;;;17.00;99.90;;;;;;5035773;28;20215;-65
2022/12/31 06:59:31;;;;;;;3.60;3.40;;;17.00;99.90;;;;;;5030903;28;20188;-65
2022/12/31 07:02:21;;;;;;;3.53;3.20;;;17.00;99.90;;;;;;5032313;28;20178;-65
2022/12/31 07:05:18;;;;;;;3.63;3.43;;;17.00;99.90;;;;;;5031493;28;20207;-66
2022/12/31 07:08:10;;;;;;;3.13;3.03;;;17.00;99.90;;;;;;5022153;28;20168;-65
2022/12/31 07:10:49;;;;;;;3.83;3.53;;;17.00;99.90;;;;;;5033391;28;20172;-65
2022/12/31 07:13:48;;;;;;;3.33;3.13;;;17.00;99.90;;;;;;5033161;28;20222;-65
2022/12/31 07:16:39;;;;;;;3.33;3.23;;;17.00;99.90;;;;;;5033030;28;20217;-66
2022/12/31 07:19:08;;;;;;;4.33;3.20;;;17.10;99.90;;;;;;5032800;28;20217;-65
2022/12/31 07:21:39;;;;;;;4.17;3.20;;;17.10;99.20;;;;;;5033274;28;20637;-65
2022/12/31 07:24:06;;;;;;;6.80;3.73;;;17.10;99.90;;;;;;5033002;28;20211;-65
2022/12/31 07:27:03;;;;;;;3.67;3.37;;;17.10;96.50;;;;;;5033164;28;20175;-65
2022/12/31 07:29:47;;;;;;;3.77;3.57;;;17.20;91.30;;;;;;5032829;28;20241;-64
2022/12/31 07:32:33;;;;;;;3.10;3.00;;;17.20;78.80;;;;;;5032767;28;20168;-64
2022/12/31 07:35:23;;;;;;;3.40;3.20;;;17.20;85.50;;;;;;5025577;28;20578;-65
2022/12/31 07:37:58;;;;;;;3.30;3.10;;;17.30;53.00;;;;;;5031386;28;20180;-65
2022/12/31 07:40:42;;;;;;;3.80;3.60;;;17.30;53.20;;;;;;5032102;28;20206;-65
2022/12/31 07:43:11;;;;;;;4.00;3.80;;;17.30;55.00;;;;;;5032409;28;20270;-65
2022/12/31 07:45:48;;;;;;;3.60;3.40;;;17.30;39.30;;;;;;5031395;28;20179;-65
2022/12/31 07:48:25;;;;;;;3.33;3.20;;;17.40;26.80;;;;;;5032283;28;20167;-65
2022/12/31 07:50:53;;;;;;;3.33;3.13;;;17.40;29.50;;;;;;5031085;28;20175;-65
2022/12/31 07:53:20;;;;;;;3.70;3.50;;;17.40;25.60;;;;;;5032182;28;20211;-65
2022/12/31 07:55:46;;;;;;;3.53;3.43;;;17.40;13.50;;;;;;5032313;28;20179;-65
2022/12/31 07:58:21;;;;;;;4.87;4.67;;;17.40;10.10;;;;;;5032194;28;20626;-65
2022/12/31 08:00:47;;;;;;;3.93;3.63;;;17.40;8.10;;;;;;5031041;28;20175;-65
2022/12/31 08:03:24;;;;;;;3.47;3.37;;;17.50;12.30;;;;;;5031892;28;20183;-65
2022/12/31 08:06:35;;;;;;;4.30;3.90;;;17.40;11.90;;;;;;5032224;28;20661;-66
2022/12/31 08:09:41;;;;;;;3.60;3.40;;;17.50;9.90;;;;;;5032125;28;20280;-65
2022/12/31 08:12:08;;;;;;;3.30;3.10;;;17.50;6.50;;;;;;5031914;28;20179;-65
2022/12/31 08:14:41;;;;;;;3.23;3.10;;;17.50;6.30;;;;;;5032028;28;20259;-65
2022/12/31 08:17:13;;;;;;;4.23;3.43;;;17.50;8.90;;;;;;5031848;28;20176;-65
2022/12/31 08:19:38;;;;;;;2.97;2.77;;;17.50;5.40;;;;;;5032079;28;20189;-65
2022/12/31 08:22:23;;;;;;;3.20;3.10;;;17.50;4.50;;;;;;5031540;28;20210;-65
2022/12/31 08:25:19;;;;;;;4.07;3.87;;;17.40;3.90;;;;;;5031605;28;20219;-65
2022/12/31 08:27:57;;;;;;;3.10;3.00;;;17.50;5.20;;;;;;5031997;28;20532;-65
2022/12/31 08:30:28;;;;;;;3.20;3.10;;;17.50;8.50;;;;;;5031630;28;20171;-65
2022/12/31 08:33:16;;;;;;;3.20;3.10;;;17.40;1.60;;;;;;5031669;28;20558;-65
2022/12/31 08:35:53;;;;;;;3.27;3.07;;;17.50;1.70;;;;;;5031860;28;20163;-66
2022/12/31 08:38:49;;;;;;;3.90;3.23;;;17.50;1.00;;;;;;5031312;28;20171;-66
2022/12/31 08:41:29;;;;;;;6.97;6.40;;;17.60;1.00;;;;;;5030864;28;20225;-65
2022/12/31 08:44:06;;;;;;;5.63;5.33;;;17.60;1.00;;;;;;5027298;28;20203;-66
2022/12/31 08:46:37;;;;;;;3.20;3.00;;;17.70;1.00;;;;;;5011921;28;20539;-66
2022/12/31 08:49:03;;;;;;;9.20;8.80;;;17.70;1.00;;;;;;5011885;28;20211;-65
2022/12/31 08:51:29;;;;;;;4.13;3.90;;;17.70;1.00;;;;;;5011810;28;20589;-66
2022/12/31 08:53:55;;;;;;;3.73;3.20;;;17.70;1.00;;;;;;5011766;28;20223;-66
2022/12/31 08:56:37;;;;;;;3.27;3.10;;;17.80;1.00;;;;;;5011638;28;20196;-66
2022/12/31 08:59:41;;;;;;;3.00;2.80;;;17.80;1.00;;;;;;5011171;28;20219;-66
2022/12/31 09:02:06;;;;;;;3.83;3.67;;;17.80;1.00;;;;;;5010744;28;20172;-66
2022/12/31 09:04:54;;;;;;;3.50;3.20;;;17.80;1.00;;;;;;5011770;28;20250;-65
2022/12/31 09:07:29;;;;;;;3.33;3.10;;;17.90;1.00;;;;;;5011224;28;20168;-66
2022/12/31 09:10:16;;;;;;;3.40;3.30;;;17.90;1.00;;;;;;5010289;28;20184;-65
2022/12/31 09:12:45;;;;;;;3.53;3.37;;;17.90;1.00;;;;;;5020686;28;20269;-65
2022/12/31 09:15:24;;;;;;;3.80;3.60;;;17.90;1.00;;;;;;5031318;28;20269;-65
2022/12/31 09:17:51;;;;;;;4.63;4.33;;;17.90;1.00;;;;;;5029699;28;20171;-66
2022/12/31 09:20:21;;;;;;;3.70;3.50;;;17.90;1.00;;;;;;5009898;28;20196;-65
2022/12/31 09:22:47;;;;;;;6.10;3.83;;;17.90;1.00;;;;;;5011719;28;20191;-65
2022/12/31 09:25:15;;;;;;;3.57;3.37;;;18.00;1.00;;;;;;5015677;28;20210;-66
2022/12/31 09:27:52;;;;;;;3.40;3.20;;;18.00;1.00;;;;;;5030602;28;20179;-65
2022/12/31 09:30:18;;;;;;;3.20;3.10;;;18.00;1.00;;;;;;5031164;28;20167;-65
2022/12/31 09:33:02;;;;;;;3.93;3.73;;;18.10;99.90;;;;;;5031320;28;20178;-65
2022/12/31 09:35:56;;;;;;;5.53;5.20;;;18.10;99.90;;;;;;5031129;28;20191;-65
2022/12/31 09:38:39;;;;;;;4.70;4.40;;;18.10;17.50;;;;;;5031042;28;20176;-65
2022/12/31 09:41:28;;;;;;;3.63;3.53;;;18.10;1.00;;;;;;5030896;28;20183;-66
2022/12/31 09:44:18;;;;;;;3.23;3.03;;;18.10;99.90;;;;;;5030417;28;20199;-65
2022/12/31 09:47:02;;;;;;;6.20;3.23;;;18.10;99.90;;;;;;5031287;28;20183;-65
2022/12/31 09:49:49;;;;;;;3.37;3.20;;;18.10;99.90;;;;;;5030914;28;20186;-65
2022/12/31 09:52:36;;;;;;;3.47;3.10;;;18.20;99.90;;;;;;5030937;28;20179;-65
2022/12/31 09:55:34;;;;;;;3.83;3.57;;;18.20;99.90;;;;;;5031068;28;20200;-65
2022/12/31 09:58:29;;;;;;;3.80;3.60;;;18.10;99.90;;;;;;5031048;28;20705;-65
2022/12/31 10:01:26;;;;;;;3.40;3.20;;;18.10;99.90;;;;;;5030798;28;20337;-65
2022/12/31 10:04:14;;;;;;;4.97;4.63;;;18.10;99.90;;;;;;5030975;28;20210;-65
2022/12/31 10:07:03;;;;;;;3.73;3.50;;;18.10;99.90;;;;;;5031198;28;20176;-65
2022/12/31 10:09:47;;;;;;;6.10;3.77;;;18.20;99.90;;;;;;5030737;28;20175;-65
2022/12/31 10:12:29;;;;;;;4.37;4.07;;;18.20;99.90;;;;;;5031649;28;20640;-65
2022/12/31 10:15:22;;;;;;;3.93;3.63;;;18.20;99.90;;;;;;5034555;28;20195;-65
2022/12/31 10:17:48;;;;;;;6.17;5.60;;;18.20;99.90;;;;;;5034553;28;20179;-65
2022/12/31 10:20:26;;;;;;;7.83;7.40;;;18.20;99.90;;;;;;5033951;28;20176;-65
2022/12/31 10:23:03;;;;;;;3.37;3.23;;;18.30;99.90;;;;;;5033835;28;20851;-65
2022/12/31 10:26:06;;;;;;;3.53;3.33;;;18.30;99.90;;;;;;5034232;28;20210;-65
2022/12/31 10:28:51;;;;;;;4.10;3.80;;;18.40;99.90;;;;;;5014564;28;20669;-66
2022/12/31 10:31:39;;;;;;;5.97;3.30;;;18.40;99.90;;;;;;5017632;28;20675;-65
2022/12/31 10:34:45;;;;;;;3.83;3.20;;;18.40;99.90;;;;;;5034280;28;20710;-65
2022/12/31 10:37:17;;;;;;;3.53;3.33;;;18.50;99.90;;;;;;5033141;28;20187;-65
2022/12/31 10:40:02;;;;;;;3.07;2.97;;;18.50;99.90;;;;;;5033853;28;20180;-65
2022/12/31 10:42:59;;;;;;;3.53;3.33;;;18.50;99.90;;;;;;5033376;28;20652;-65
2022/12/31 10:45:43;;;;;;;3.20;3.00;;;18.40;99.90;;;;;;5032316;28;20217;-65
2022/12/31 10:48:34;;;;;;;3.90;3.70;;;18.40;99.90;;;;;;5032643;28;20218;-65
2022/12/31 10:51:28;;;;;;;3.43;2.90;;;18.50;99.90;;;;;;5033466;28;20183;-65
2022/12/31 10:53:57;;;;;;;3.23;2.93;;;18.50;99.90;;;;;;5033800;28;20580;-65
2022/12/31 10:56:44;;;;;;;7.57;7.17;;;18.40;99.90;;;;;;5033249;28;20175;-65
2022/12/31 10:59:15;;;;;;;4.23;3.93;;;18.40;99.90;;;;;;5032198;28;20183;-66
2022/12/31 11:01:47;;;;;;;4.00;3.73;;;18.40;99.90;;;;;;5033696;28;20168;-65
2022/12/31 11:04:33;;;;;;;6.73;3.57;;;18.40;99.90;;;;;;5031791;28;20672;-65
2022/12/31 11:07:32;;;;;;;5.00;4.73;;;18.40;99.90;;;;;;5033624;28;20249;-65
2022/12/31 11:10:28;;;;;;;3.70;3.47;;;18.40;99.90;;;;;;5032986;28;20402;-65
2022/12/31 11:13:16;;;;;;;3.30;3.10;;;18.40;99.90;;;;;;5033590;28;20401;-65
2022/12/31 11:16:05;;;;;;;4.03;3.73;;;18.40;99.90;;;;;;5033363;28;20176;-65
2022/12/31 11:19:03;;;;;;;6.40;6.13;;;18.40;99.90;;;;;;5027375;28;20192;-65
2022/12/31 11:21:40;;;;;;;3.33;3.03;;;18.40;99.90;;;;;;5033278;28;20225;-65
2022/12/31 11:24:17;;;;;;;3.83;3.63;;;18.50;99.90;;;;;;5032365;28;20214;-65
2022/12/31 11:27:01;;;;;;;5.93;5.33;;;18.50;99.90;;;;;;5033367;28;20178;-66
2022/12/31 11:30:01;;;;;;;3.60;3.40;;;18.60;99.90;;;;;;5032698;28;20179;-66
2022/12/31 11:32:50;;;;;;;5.60;4.43;;;18.60;99.90;;;;;;5032987;28;20624;-65
2022/12/31 11:35:37;;;;;;;3.67;3.17;;;18.60;99.90;;;;;;5016551;28;20233;-65
2022/12/31 11:38:31;;;;;;;4.60;4.40;;;18.60;99.90;;;;;;5032817;28;20183;-65
2022/12/31 11:41:26;;;;;;;8.90;8.40;;;18.60;99.90;;;;;;5029049;28;20555;-65
2022/12/31 11:44:11;;;;;;;9.13;3.33;;;18.50;99.90;;;;;;5032689;28;20549;-65
2022/12/31 11:46:57;;;;;;;3.83;3.23;;;18.40;99.90;;;;;;5032934;28;20542;-66
2022/12/31 11:49:47;;;;;;;3.27;3.07;;;18.30;99.90;;;;;;5032377;28;20183;-66
2022/12/31 11:52:29;;;;;;;5.17;4.90;;;18.30;99.90;;;;;;5031633;28;20171;-66
2022/12/31 11:55:22;;;;;;;5.10;3.70;;;18.30;99.90;;;;;;5032371;28;20215;-66
2022/12/31 11:57:49;;;;;;;4.90;4.47;;;18.30;99.90;;;;;;5032811;28;20178;-65
2022/12/31 12:00:19;;;;;;;4.27;3.87;;;18.30;99.90;;;;;;5030796;28;20634;-66
2022/12/31 12:02:48;;;;;;;6.20;5.73;;;18.40;99.90;;;;;;5032718;28;20182;-66
2022/12/31 12:05:16;;;;;;;4.30;4.00;;;18.40;99.90;;;;;;5032166;28;20245;-65
2022/12/31 12:07:42;;;;;;;3.47;3.27;;;18.40;99.90;;;;;;5031324;28;20171;-65
2022/12/31 12:10:25;;;;;;;12.33;11.57;;;18.40;99.90;;;;;;5031774;28;20237;-66
2022/12/31 12:12:53;;;;;;;5.20;4.70;;;18.50;99.90;;;;;;5032376;28;20237;-65
2022/12/31 12:15:30;;;;;;;5.50;5.20;;;18.50;99.90;;;;;;5032019;28;20196;-66
2022/12/31 12:18:00;;;;;;;11.57;10.97;;;18.50;99.90;;;;;;5032401;28;20163;-66
2022/12/31 12:20:35;;;;;;;15.73;14.90;;;18.50;99.90;;;;;;5031507;28;20237;-65
2022/12/31 12:23:15;;;;;;;6.33;5.87;;;18.60;99.90;;;;;;5032749;28;20266;-66
2022/12/31 12:25:43;;;;;;;5.63;5.17;;;18.60;99.90;;;;;;5047265;28;20542;-65
2022/12/31 12:28:19;;;;;;;3.90;3.70;;;18.70;99.90;;;;;;5031941;28;20221;-66
2022/12/31 12:30:52;;;;;;;8.63;7.90;;;18.70;99.90;;;;;;5032126;28;20183;-66
2022/12/31 12:33:19;;;;;;;3.97;3.63;;;18.60;99.90;;;;;;5031776;28;20209;-66
2022/12/31 12:35:45;;;;;;;3.93;3.73;;;18.60;99.90;;;;;;5031077;28;20663;-65
2022/12/31 12:38:20;;;;;;;4.57;3.30;;;18.60;99.90;;;;;;5031756;28;20174;-66
2022/12/31 12:40:57;;;;;;;5.60;5.37;;;18.50;99.90;;;;;;5031432;28;20240;-65
2022/12/31 12:43:26;;;;;;;5.23;3.00;;;18.60;99.90;;;;;;5031826;28;20600;-65
2022/12/31 12:45:53;;;;;;;4.67;4.30;;;18.50;99.90;;;;;;5031738;28;20590;-66
2022/12/31 12:48:27;;;;;;;7.93;7.53;;;18.50;99.90;;;;;;5031532;28;20171;-65
2022/12/31 12:50:53;;;;;;;3.27;3.07;;;18.60;99.90;;;;;;5030323;28;20186;-65
2022/12/31 12:54:03;;;;;;;3.27;3.17;;;18.60;99.90;;;;;;5031492;28;20195;-65
2022/12/31 12:56:48;;;;;;;4.27;4.07;;;18.60;99.90;;;;;;5011775;28;20195;-64
2022/12/31 12:59:47;;;;;;;3.73;3.43;;;18.60;99.90;;;;;;5013255;28;20207;-66
2022/12/31 13:02:28;;;;;;;3.03;2.90;;;18.60;99.90;;;;;;5027136;28;20555;-65
2022/12/31 13:05:12;;;;;;;4.03;2.90;;;18.50;99.90;;;;;;5014314;28;20249;-65
2022/12/31 13:07:59;;;;;;;3.97;3.77;;;18.50;99.90;;;;;;5031639;28;20176;-65
2022/12/31 13:10:57;;;;;;;4.93;4.63;;;18.50;99.90;;;;;;5029784;28;20210;-66
2022/12/31 13:13:25;;;;;;;7.93;7.30;;;18.40;99.90;;;;;;5037290;28;20207;-66
2022/12/31 13:16:10;;;;;;;3.53;3.33;;;18.20;99.90;;;;;;5031440;28;20262;-66
2022/12/31 13:18:51;;;;;;;5.30;4.27;;;18.00;99.90;;;;;;5031264;28;20187;-65
2022/12/31 13:21:39;;;;;;;4.30;3.90;;;17.50;99.90;;;;;;5031132;28;20179;-65
2022/12/31 13:24:26;;;;;;;22.67;21.53;;;17.00;99.90;;;;;;5031775;28;20207;-65
2022/12/31 13:26:54;;;;;;;4.27;3.97;;;16.60;99.90;;;;;;5031792;28;20653;-66
2022/12/31 13:29:25;;;;;;;4.33;3.97;;;16.40;99.90;;;;;;5028916;28;20674;-65
2022/12/31 13:31:53;;;;;;;4.40;4.20;;;16.30;99.90;;;;;;5030551;28;20222;-66
2022/12/31 13:34:27;;;;;;;4.20;3.90;;;16.20;99.90;;;;;;5030434;28;20277;-65
2022/12/31 13:36:55;;;;;;;3.90;3.70;;;16.00;99.90;;;;;;5030630;28;20179;-66